Time;durP1;ratioP1;P1;durP2;ratioP2;P2;SDS_P1;SDS_P2;PMS_P1;PMS_P2;Temp;Humidity;BMP_temperature;BMP_pressure;BME280_temperature;BME280_humidity;BME280_pressure;Samples;Min_cycle;Max_cycle;Signal;HPM_P1;HPM_P2
2021/01/06 00:01:50;;;;;;;0.00;0.00;;;3.10;99.90;;;;;;5010361;28;20203;-84
2021/01/06 00:04:15;;;;;;;0.10;0.10;;;3.00;99.90;;;;;;5011299;28;20262;-84
2021/01/06 00:06:41;;;;;;;0.10;0.10;;;3.00;99.90;;;;;;5011099;28;20322;-84
2021/01/06 00:09:07;;;;;;;0.07;0.07;;;3.00;99.90;;;;;;5009535;28;20670;-84
2021/01/06 00:11:38;;;;;;;0.63;0.57;;;3.00;99.90;;;;;;5009816;28;20214;-84
2021/01/06 00:14:09;;;;;;;0.17;0.17;;;2.90;99.90;;;;;;5011381;28;20533;-83
2021/01/06 00:16:35;;;;;;;0.10;0.10;;;3.00;99.90;;;;;;5010534;28;20195;-84
2021/01/06 00:19:01;;;;;;;0.00;0.00;;;2.90;99.90;;;;;;5010265;28;20244;-84
2021/01/06 00:21:26;;;;;;;0.10;0.10;;;2.90;99.90;;;;;;5010879;28;20222;-84
2021/01/06 00:23:52;;;;;;;0.10;0.10;;;3.00;99.90;;;;;;5008728;28;20218;-84
2021/01/06 00:26:18;;;;;;;0.50;0.10;;;3.00;99.90;;;;;;5009788;28;20210;-84
2021/01/06 00:28:43;;;;;;;0.20;0.10;;;3.10;99.90;;;;;;5009615;28;20711;-84
2021/01/06 00:31:09;;;;;;;0.17;0.17;;;3.20;99.90;;;;;;5009143;28;20738;-84
2021/01/06 00:33:37;;;;;;;0.10;0.10;;;3.20;99.90;;;;;;5011340;28;20197;-85
2021/01/06 00:36:11;;;;;;;0.17;0.17;;;3.10;99.90;;;;;;5011239;28;20269;-84
2021/01/06 00:38:38;;;;;;;0.10;0.10;;;3.10;99.90;;;;;;5023510;28;20563;-84
2021/01/06 00:41:05;;;;;;;0.10;0.10;;;3.10;99.90;;;;;;5009409;28;20218;-84
2021/01/06 00:43:31;;;;;;;0.20;0.20;;;3.10;99.90;;;;;;5010861;28;20638;-83
2021/01/06 00:45:56;;;;;;;0.10;0.10;;;3.10;99.90;;;;;;5008896;28;20195;-84
2021/01/06 00:48:22;;;;;;;0.40;0.40;;;3.20;99.90;;;;;;5010095;28;20191;-84
2021/01/06 00:50:48;;;;;;;0.20;0.20;;;3.10;99.90;;;;;;5009763;28;20194;-83
2021/01/06 00:53:23;;;;;;;0.03;0.03;;;3.20;99.90;;;;;;5009441;28;20233;-84
2021/01/06 00:55:50;;;;;;;0.10;0.10;;;3.10;99.90;;;;;;5010076;28;20686;-84
2021/01/06 00:58:16;;;;;;;0.30;0.30;;;3.10;99.90;;;;;;5009516;28;20213;-84
2021/01/06 01:00:42;;;;;;;2.83;1.20;;;3.20;99.90;;;;;;5010451;28;20214;-84
2021/01/06 01:03:07;;;;;;;0.03;0.03;;;3.10;99.90;;;;;;5009660;28;20353;-83
2021/01/06 01:05:34;;;;;;;0.87;0.30;;;3.10;99.90;;;;;;5010082;28;20245;-84
2021/01/06 01:08:01;;;;;;;0.10;0.10;;;3.10;99.90;;;;;;5011132;28;20672;-84
2021/01/06 01:10:27;;;;;;;0.10;0.10;;;3.00;99.90;;;;;;5010607;28;20226;-84
2021/01/06 01:12:52;;;;;;;0.10;0.10;;;3.00;99.90;;;;;;5013017;28;20273;-84
2021/01/06 01:15:23;;;;;;;0.10;0.10;;;3.00;99.90;;;;;;5013630;28;20196;-83
2021/01/06 01:17:48;;;;;;;0.77;0.33;;;3.00;99.90;;;;;;5013668;28;20198;-83
2021/01/06 01:20:16;;;;;;;0.10;0.10;;;2.90;99.90;;;;;;5013928;28;20206;-84
2021/01/06 01:22:43;;;;;;;0.20;0.20;;;3.00;99.90;;;;;;5013420;28;20304;-84
2021/01/06 01:25:10;;;;;;;0.10;0.10;;;3.00;99.90;;;;;;5013206;28;20192;-84
2021/01/06 01:27:37;;;;;;;0.00;0.00;;;3.00;99.90;;;;;;5006430;28;20198;-84
2021/01/06 01:30:04;;;;;;;0.33;0.17;;;3.00;99.90;;;;;;5008957;28;20195;-84
2021/01/06 01:32:29;;;;;;;0.20;0.20;;;3.00;99.90;;;;;;5012241;28;20226;-83
2021/01/06 01:34:55;;;;;;;0.20;0.20;;;2.90;99.90;;;;;;5029680;28;20350;-84
2021/01/06 01:37:20;;;;;;;0.03;0.03;;;2.90;99.90;;;;;;5014639;28;20183;-84
2021/01/06 01:39:46;;;;;;;0.20;0.20;;;2.90;99.90;;;;;;5012395;28;20788;-84
2021/01/06 01:42:11;;;;;;;0.10;0.10;;;2.90;99.90;;;;;;5014547;28;20199;-84
2021/01/06 01:44:57;;;;;;;0.20;0.17;;;2.90;99.90;;;;;;5012487;28;20186;-84
2021/01/06 01:47:26;;;;;;;0.40;0.40;;;2.90;99.90;;;;;;5012638;28;20222;-84
2021/01/06 01:49:52;;;;;;;0.07;0.07;;;2.80;99.90;;;;;;5012603;28;20210;-84
2021/01/06 01:52:30;;;;;;;0.50;0.33;;;2.80;99.90;;;;;;5012735;28;20631;-84
2021/01/06 01:54:59;;;;;;;0.00;0.00;;;2.70;99.90;;;;;;5023981;28;20194;-84
2021/01/06 01:57:30;;;;;;;0.10;0.10;;;2.80;99.90;;;;;;5014219;28;20187;-83
2021/01/06 02:00:12;;;;;;;0.10;0.10;;;2.80;99.90;;;;;;5013339;28;20199;-83
2021/01/06 02:02:54;;;;;;;0.00;0.00;;;2.70;99.90;;;;;;5011203;28;20721;-84
2021/01/06 02:05:47;;;;;;;0.20;0.20;;;2.70;99.90;;;;;;5013885;28;20569;-83
2021/01/06 02:08:39;;;;;;;0.10;0.10;;;2.70;99.90;;;;;;5003468;28;20689;-84
2021/01/06 02:11:12;;;;;;;0.40;0.40;;;2.70;99.90;;;;;;4994501;28;20195;-84
2021/01/06 02:13:43;;;;;;;0.17;0.17;;;2.80;99.90;;;;;;5014006;28;20174;-84
2021/01/06 02:16:17;;;;;;;3.00;0.30;;;2.80;99.90;;;;;;5011646;28;20187;-84
2021/01/06 02:18:42;;;;;;;0.10;0.10;;;2.80;99.90;;;;;;5014307;28;20675;-84
2021/01/06 02:21:14;;;;;;;0.00;0.00;;;2.90;99.90;;;;;;5011599;28;20238;-83
2021/01/06 02:23:42;;;;;;;0.10;0.10;;;2.80;99.90;;;;;;5012688;28;20207;-83
2021/01/06 02:26:08;;;;;;;0.10;0.10;;;2.80;99.90;;;;;;5011862;28;20187;-83
2021/01/06 02:28:34;;;;;;;0.20;0.20;;;2.80;99.90;;;;;;5012630;28;20249;-83
2021/01/06 02:31:00;;;;;;;0.10;0.10;;;2.80;99.90;;;;;;5011643;28;20179;-83
2021/01/06 02:33:26;;;;;;;0.10;0.10;;;2.80;99.90;;;;;;5011885;28;20210;-84
2021/01/06 02:35:52;;;;;;;0.73;0.70;;;2.80;99.90;;;;;;5011651;28;20787;-83
2021/01/06 02:38:22;;;;;;;1.13;0.20;;;2.70;99.90;;;;;;5012622;28;20183;-84
2021/01/06 02:40:50;;;;;;;0.30;0.10;;;2.70;99.90;;;;;;5011730;28;20207;-84
2021/01/06 02:43:16;;;;;;;0.10;0.10;;;2.80;99.90;;;;;;5011619;28;20203;-83
2021/01/06 02:45:42;;;;;;;0.20;0.20;;;2.90;99.90;;;;;;5011430;28;20675;-84
2021/01/06 02:48:08;;;;;;;0.00;0.00;;;2.80;99.90;;;;;;5010788;28;20194;-85
2021/01/06 02:50:36;;;;;;;0.37;0.37;;;2.80;99.90;;;;;;5010377;28;20183;-84
2021/01/06 02:53:06;;;;;;;0.00;0.00;;;2.80;99.90;;;;;;5009809;28;20293;-84
2021/01/06 02:55:34;;;;;;;0.20;0.20;;;2.80;99.90;;;;;;5004279;28;20194;-84
2021/01/06 02:58:09;;;;;;;1.03;0.13;;;2.80;99.90;;;;;;5013027;28;20187;-84
2021/01/06 03:00:36;;;;;;;0.07;0.07;;;2.80;99.90;;;;;;5010384;28;20240;-83
2021/01/06 03:03:07;;;;;;;0.20;0.20;;;2.80;99.90;;;;;;5011363;28;20576;-82
2021/01/06 03:05:40;;;;;;;0.00;0.00;;;2.80;99.90;;;;;;5010761;28;20180;-83
2021/01/06 03:08:08;;;;;;;0.10;0.10;;;2.70;99.90;;;;;;5011221;28;20238;-83
2021/01/06 03:10:34;;;;;;;0.33;0.27;;;2.70;99.90;;;;;;5011276;28;20199;-84
2021/01/06 03:13:00;;;;;;;0.00;0.00;;;2.70;99.90;;;;;;5012540;28;20774;-83
2021/01/06 03:15:28;;;;;;;0.03;0.03;;;2.70;99.90;;;;;;5010605;28;20183;-83
2021/01/06 03:17:55;;;;;;;0.10;0.10;;;2.60;99.90;;;;;;5077180;22;20320;-80
2021/01/06 03:20:34;;;;;;;0.10;0.10;;;2.50;99.90;;;;;;5030304;28;20301;-80
2021/01/06 03:23:15;;;;;;;0.03;0.03;;;2.50;99.90;;;;;;5024658;28;20184;-80
2021/01/06 03:25:41;;;;;;;0.00;0.00;;;2.50;99.90;;;;;;5018453;28;20228;-80
2021/01/06 03:28:10;;;;;;;0.27;0.27;;;2.40;99.90;;;;;;5019900;28;20206;-80
2021/01/06 03:30:36;;;;;;;0.10;0.10;;;2.40;99.90;;;;;;5012538;28;20274;-80
2021/01/06 03:33:25;;;;;;;0.10;0.10;;;2.40;99.90;;;;;;5012046;28;20825;-80
2021/01/06 03:36:23;;;;;;;1.50;0.07;;;2.40;99.90;;;;;;5015593;28;20651;-79
2021/01/06 03:38:51;;;;;;;0.00;0.00;;;2.60;99.90;;;;;;4998390;28;20856;-81
2021/01/06 03:41:17;;;;;;;0.00;0.00;;;2.80;99.90;;;;;;5010261;28;20209;-80
2021/01/06 03:43:55;;;;;;;0.10;0.10;;;2.90;99.90;;;;;;5018491;28;20286;-81
2021/01/06 03:46:24;;;;;;;0.10;0.10;;;3.10;99.90;;;;;;5015856;28;20202;-80
2021/01/06 03:48:49;;;;;;;0.00;0.00;;;3.00;99.90;;;;;;5015398;28;20229;-80
2021/01/06 03:51:33;;;;;;;0.10;0.10;;;2.90;99.90;;;;;;5021484;28;20207;-79
2021/01/06 03:54:05;;;;;;;0.00;0.00;;;2.90;99.90;;;;;;5011074;28;20186;-78
2021/01/06 03:56:38;;;;;;;0.10;0.10;;;2.90;99.90;;;;;;5016739;28;20663;-80
2021/01/06 03:59:22;;;;;;;0.17;0.17;;;2.80;99.90;;;;;;5016212;28;20187;-80
2021/01/06 04:02:13;;;;;;;0.07;0.07;;;2.90;99.90;;;;;;5010746;28;20194;-82
2021/01/06 04:04:46;;;;;;;2.63;0.10;;;3.00;99.90;;;;;;5006996;28;20217;-82
2021/01/06 04:07:34;;;;;;;0.00;0.00;;;3.10;99.90;;;;;;5024059;28;20858;-80
2021/01/06 04:10:09;;;;;;;0.40;0.20;;;3.20;99.90;;;;;;5011900;28;20248;-80
2021/01/06 04:12:35;;;;;;;0.10;0.10;;;3.10;99.90;;;;;;5018471;28;20225;-80
2021/01/06 04:15:00;;;;;;;0.23;0.20;;;3.00;99.90;;;;;;5010504;28;20789;-80
2021/01/06 04:17:29;;;;;;;0.10;0.10;;;2.90;99.90;;;;;;5014888;28;20611;-80
2021/01/06 04:20:09;;;;;;;0.10;0.10;;;3.00;99.90;;;;;;5010105;28;20230;-78
2021/01/06 04:22:50;;;;;;;0.03;0.03;;;3.00;99.90;;;;;;4999449;28;20183;-80
2021/01/06 04:25:24;;;;;;;0.20;0.20;;;2.80;99.90;;;;;;5019249;28;20682;-78
2021/01/06 04:27:53;;;;;;;0.10;0.10;;;2.80;99.90;;;;;;5013370;28;20280;-80
2021/01/06 04:30:34;;;;;;;0.00;0.00;;;2.60;99.90;;;;;;4997435;28;20714;-79
2021/01/06 04:33:02;;;;;;;0.10;0.10;;;2.60;99.90;;;;;;5004315;28;20205;-80
2021/01/06 04:35:29;;;;;;;0.20;0.10;;;2.70;99.90;;;;;;5007531;28;20189;-81
2021/01/06 04:37:57;;;;;;;0.10;0.10;;;3.00;99.90;;;;;;5008760;28;20217;-82
2021/01/06 04:40:26;;;;;;;0.10;0.10;;;3.20;99.90;;;;;;5009915;28;20627;-80
2021/01/06 04:42:58;;;;;;;0.10;0.10;;;3.40;99.90;;;;;;5010111;28;20237;-80
2021/01/06 04:45:30;;;;;;;0.10;0.10;;;3.50;99.90;;;;;;5008540;28;20187;-80
2021/01/06 04:48:12;;;;;;;0.10;0.10;;;3.50;99.90;;;;;;5007731;28;20684;-81
2021/01/06 04:50:51;;;;;;;0.10;0.10;;;3.60;99.90;;;;;;5011021;28;20244;-81
2021/01/06 04:53:37;;;;;;;0.57;0.20;;;3.70;99.90;;;;;;5010796;28;20186;-81
2021/01/06 04:56:40;;;;;;;0.47;0.47;;;3.80;99.90;;;;;;5017421;28;20202;-81
2021/01/06 04:59:34;;;;;;;0.10;0.10;;;3.90;99.90;;;;;;5007853;28;20190;-80
2021/01/06 05:02:24;;;;;;;0.20;0.20;;;3.90;99.90;;;;;;5011621;28;20191;-80
2021/01/06 05:05:22;;;;;;;0.57;0.57;;;4.00;99.90;;;;;;4996724;28;20558;-82
2021/01/06 05:07:59;;;;;;;0.00;0.00;;;4.00;99.90;;;;;;5007998;28;20297;-81
2021/01/06 05:10:39;;;;;;;0.20;0.20;;;3.90;99.90;;;;;;5008490;28;20202;-81
2021/01/06 05:13:38;;;;;;;0.23;0.23;;;3.60;99.90;;;;;;5009155;28;20245;-81
2021/01/06 05:16:08;;;;;;;0.20;0.20;;;3.40;99.90;;;;;;5011112;28;20213;-80
2021/01/06 05:18:34;;;;;;;0.10;0.10;;;3.20;99.90;;;;;;5007597;28;20214;-82
2021/01/06 05:21:00;;;;;;;0.17;0.17;;;3.20;99.90;;;;;;5007651;28;20744;-80
2021/01/06 05:23:29;;;;;;;0.30;0.30;;;3.20;99.90;;;;;;5009457;28;20195;-81
2021/01/06 05:25:58;;;;;;;0.00;0.00;;;3.10;99.90;;;;;;5008480;28;20191;-81
2021/01/06 05:28:24;;;;;;;0.30;0.30;;;3.00;99.90;;;;;;5008961;28;20733;-80
2021/01/06 05:30:56;;;;;;;0.30;0.30;;;3.00;99.90;;;;;;5008351;28;20196;-82
2021/01/06 05:33:33;;;;;;;0.10;0.10;;;2.90;99.90;;;;;;5009017;28;20187;-80
2021/01/06 05:35:59;;;;;;;0.10;0.10;;;2.90;99.90;;;;;;5008415;28;20198;-81
2021/01/06 05:38:25;;;;;;;0.00;0.00;;;2.90;99.90;;;;;;5009360;28;20222;-78
2021/01/06 05:40:51;;;;;;;0.10;0.10;;;2.90;99.90;;;;;;5009059;28;20574;-81
2021/01/06 05:43:22;;;;;;;0.10;0.10;;;2.90;99.90;;;;;;5008649;28;20210;-81
2021/01/06 05:46:02;;;;;;;0.20;0.10;;;2.90;99.90;;;;;;5009579;28;20183;-82
2021/01/06 05:48:46;;;;;;;1.50;0.30;;;2.90;99.90;;;;;;5010053;28;20211;-81
2021/01/06 05:51:17;;;;;;;1.83;0.73;;;2.90;99.90;;;;;;5009517;28;20187;-81
2021/01/06 05:54:03;;;;;;;0.50;0.33;;;2.90;99.90;;;;;;5009101;28;20282;-81
2021/01/06 05:56:53;;;;;;;0.20;0.20;;;3.00;99.90;;;;;;5008977;28;20199;-81
2021/01/06 05:59:47;;;;;;;0.10;0.10;;;3.00;99.90;;;;;;5012045;28;20191;-82
2021/01/06 06:02:57;;;;;;;0.10;0.10;;;3.00;99.90;;;;;;5012965;28;20198;-81
2021/01/06 06:05:45;;;;;;;0.10;0.10;;;3.00;99.90;;;;;;5007879;28;20284;-81
2021/01/06 06:08:23;;;;;;;0.00;0.00;;;3.10;99.90;;;;;;5003131;28;20205;-81
2021/01/06 06:11:17;;;;;;;0.10;0.10;;;3.10;99.90;;;;;;5013214;28;20257;-81
2021/01/06 06:14:33;;;;;;;0.17;0.17;;;3.10;99.90;;;;;;5010612;28;20184;-80
2021/01/06 06:17:07;;;;;;;0.23;0.23;;;3.10;99.90;;;;;;5018680;28;20295;-83
2021/01/06 06:20:10;;;;;;;0.00;0.00;;;3.20;99.90;;;;;;5011765;28;20187;-81
2021/01/06 06:22:59;;;;;;;0.00;0.00;;;3.20;99.90;;;;;;5001396;28;20193;-82
2021/01/06 06:25:30;;;;;;;0.10;0.10;;;3.20;99.90;;;;;;5002764;28;20299;-80
2021/01/06 06:28:04;;;;;;;0.37;0.37;;;3.30;99.90;;;;;;5010671;28;20606;-79
2021/01/06 06:30:42;;;;;;;0.20;0.20;;;3.40;99.90;;;;;;5010177;28;20609;-80
2021/01/06 06:33:34;;;;;;;0.40;0.30;;;3.40;99.90;;;;;;5011616;28;20183;-80
2021/01/06 06:36:12;;;;;;;0.10;0.10;;;3.50;99.90;;;;;;5012874;28;20577;-78
2021/01/06 06:38:41;;;;;;;0.10;0.10;;;3.40;99.90;;;;;;5013832;28;20650;-79
2021/01/06 06:41:10;;;;;;;0.00;0.00;;;3.30;99.90;;;;;;5010647;28;20302;-80
2021/01/06 06:43:38;;;;;;;0.10;0.10;;;3.30;99.90;;;;;;5012013;28;20208;-80
2021/01/06 06:46:26;;;;;;;0.63;0.43;;;3.40;99.90;;;;;;5010281;28;20183;-80
2021/01/06 06:49:14;;;;;;;0.10;0.10;;;3.50;99.90;;;;;;5011366;28;20660;-80
2021/01/06 06:51:58;;;;;;;0.30;0.30;;;3.40;99.90;;;;;;4995638;28;20621;-79
2021/01/06 06:54:44;;;;;;;0.23;0.23;;;3.40;99.90;;;;;;5012675;28;20195;-81
2021/01/06 06:57:22;;;;;;;0.53;0.30;;;3.30;99.90;;;;;;5009873;28;20297;-79
2021/01/06 07:00:09;;;;;;;0.10;0.10;;;3.20;99.90;;;;;;5011530;28;20190;-80
2021/01/06 07:02:51;;;;;;;0.30;0.30;;;3.20;99.90;;;;;;5012524;28;20215;-80
2021/01/06 07:05:50;;;;;;;0.27;0.27;;;3.10;99.90;;;;;;5013122;28;20184;-79
2021/01/06 07:08:29;;;;;;;0.17;0.17;;;3.10;99.90;;;;;;5005251;28;20392;-79
2021/01/06 07:10:58;;;;;;;0.63;0.63;;;3.10;99.90;;;;;;5010652;28;20194;-79
2021/01/06 07:13:26;;;;;;;4.13;0.30;;;3.10;99.90;;;;;;5004513;28;20246;-80
2021/01/06 07:15:55;;;;;;;0.20;0.20;;;3.10;99.90;;;;;;5012068;28;20218;-80
2021/01/06 07:18:39;;;;;;;0.30;0.30;;;3.10;99.90;;;;;;5010165;28;20244;-78
2021/01/06 07:21:12;;;;;;;0.20;0.20;;;3.10;99.90;;;;;;5010754;28;20315;-80
2021/01/06 07:23:46;;;;;;;0.50;0.40;;;3.10;99.90;;;;;;5006186;28;20192;-79
2021/01/06 07:26:15;;;;;;;0.10;0.10;;;3.10;99.90;;;;;;5023852;28;20350;-79
2021/01/06 07:28:42;;;;;;;0.20;0.20;;;3.10;99.90;;;;;;5007941;28;20213;-81
2021/01/06 07:31:19;;;;;;;0.50;0.50;;;3.10;99.90;;;;;;5009898;28;20241;-78
2021/01/06 07:34:13;;;;;;;0.10;0.10;;;3.10;99.90;;;;;;5009484;28;20706;-83
2021/01/06 07:37:08;;;;;;;0.10;0.10;;;3.00;99.90;;;;;;5008205;28;20199;-80
2021/01/06 07:39:37;;;;;;;0.00;0.00;;;3.10;99.90;;;;;;5020530;28;20198;-80
2021/01/06 07:42:26;;;;;;;0.50;0.50;;;3.10;99.90;;;;;;5008181;28;20670;-80
2021/01/06 07:45:28;;;;;;;1.60;0.27;;;3.10;99.90;;;;;;5011576;28;20214;-79
2021/01/06 07:48:15;;;;;;;0.07;0.07;;;3.10;99.90;;;;;;5006365;28;20226;-81
2021/01/06 07:50:50;;;;;;;0.20;0.20;;;3.10;99.90;;;;;;5014243;28;20272;-80
2021/01/06 07:53:19;;;;;;;0.10;0.10;;;3.20;99.90;;;;;;5003921;28;20186;-80
2021/01/06 07:55:59;;;;;;;0.43;0.43;;;3.20;99.90;;;;;;5007301;28;20190;-80
2021/01/06 07:58:31;;;;;;;0.00;0.00;;;3.20;99.90;;;;;;5009114;28;20202;-80
2021/01/06 08:00:56;;;;;;;0.10;0.10;;;3.20;99.90;;;;;;5010147;28;20206;-81
2021/01/06 08:03:32;;;;;;;0.50;0.30;;;3.20;99.90;;;;;;5011863;28;20180;-78
2021/01/06 08:05:59;;;;;;;0.03;0.03;;;3.20;99.90;;;;;;5011384;28;20191;-77
2021/01/06 08:08:39;;;;;;;0.10;0.10;;;3.20;99.90;;;;;;5010889;28;20242;-80
2021/01/06 08:11:10;;;;;;;0.00;0.00;;;3.30;99.90;;;;;;5008927;28;20187;-80
2021/01/06 08:13:39;;;;;;;0.30;0.30;;;3.30;99.90;;;;;;5008982;28;20195;-80
2021/01/06 08:16:42;;;;;;;0.10;0.10;;;3.30;99.90;;;;;;5010828;28;20258;-83
2021/01/06 08:19:21;;;;;;;0.17;0.17;;;3.30;99.90;;;;;;4990254;28;20294;-82
2021/01/06 08:22:05;;;;;;;1.23;0.47;;;3.30;99.90;;;;;;5008624;28;20221;-83
2021/01/06 08:24:41;;;;;;;0.10;0.10;;;3.30;99.90;;;;;;5008798;28;20252;-80
2021/01/06 08:27:15;;;;;;;0.20;0.20;;;3.30;99.90;;;;;;5006861;28;20211;-81
2021/01/06 08:29:40;;;;;;;0.13;0.13;;;3.40;99.90;;;;;;5007742;28;20187;-80
2021/01/06 08:32:22;;;;;;;0.57;0.30;;;3.40;99.90;;;;;;5009680;28;20571;-79
2021/01/06 08:35:00;;;;;;;0.20;0.20;;;3.40;99.90;;;;;;5007633;28;20176;-80
2021/01/06 08:37:33;;;;;;;0.20;0.20;;;3.40;99.90;;;;;;5012809;28;20285;-80
2021/01/06 08:39:59;;;;;;;0.10;0.10;;;3.40;99.90;;;;;;5009842;28;20565;-79
2021/01/06 08:42:45;;;;;;;0.40;0.40;;;3.50;99.90;;;;;;5006844;28;20180;-80
2021/01/06 08:45:32;;;;;;;0.23;0.20;;;3.50;99.90;;;;;;5008282;28;20175;-80
2021/01/06 08:48:24;;;;;;;0.10;0.10;;;3.50;99.90;;;;;;5007173;28;20199;-80
2021/01/06 08:50:51;;;;;;;0.10;0.10;;;3.50;99.90;;;;;;5010693;28;20190;-80
2021/01/06 08:53:28;;;;;;;0.20;0.20;;;3.60;99.90;;;;;;5008101;28;20179;-80
2021/01/06 08:55:57;;;;;;;1.20;0.23;;;3.60;99.90;;;;;;5007498;28;20179;-80
2021/01/06 08:58:23;;;;;;;0.97;0.83;;;3.70;99.90;;;;;;5009788;28;20218;-79
2021/01/06 09:00:54;;;;;;;4.17;0.70;;;3.60;99.90;;;;;;5006325;28;20583;-79
2021/01/06 09:03:33;;;;;;;0.10;0.10;;;3.60;99.90;;;;;;5007100;28;20670;-80
2021/01/06 09:06:16;;;;;;;0.10;0.10;;;3.50;99.90;;;;;;5009168;28;20265;-81
2021/01/06 09:08:53;;;;;;;0.13;0.13;;;3.60;99.90;;;;;;5011347;28;20292;-78
2021/01/06 09:11:34;;;;;;;0.20;0.20;;;3.60;99.90;;;;;;5010476;28;20187;-79
2021/01/06 09:14:10;;;;;;;2.53;0.17;;;3.70;99.90;;;;;;5011214;28;20183;-80
2021/01/06 09:16:57;;;;;;;0.10;0.10;;;3.70;99.90;;;;;;5010889;28;20240;-80
2021/01/06 09:19:32;;;;;;;0.07;0.07;;;3.70;99.90;;;;;;5010894;28;20191;-79
2021/01/06 09:21:59;;;;;;;0.20;0.20;;;3.90;99.90;;;;;;5009850;28;20218;-80
2021/01/06 09:24:34;;;;;;;0.73;0.20;;;3.80;99.90;;;;;;5003426;28;20176;-83
2021/01/06 09:27:12;;;;;;;0.10;0.10;;;3.80;99.90;;;;;;5004522;28;20246;-79
2021/01/06 09:29:38;;;;;;;0.30;0.30;;;3.70;99.90;;;;;;5004552;28;20184;-79
2021/01/06 09:32:13;;;;;;;0.13;0.07;;;3.90;99.90;;;;;;5009454;28;20180;-78
2021/01/06 09:34:49;;;;;;;0.83;0.30;;;3.90;99.90;;;;;;5002613;28;20275;-78
2021/01/06 09:37:24;;;;;;;0.10;0.10;;;3.90;99.90;;;;;;5013512;28;20204;-79
2021/01/06 09:39:52;;;;;;;0.70;0.23;;;4.10;99.90;;;;;;5011620;28;20238;-79
2021/01/06 09:42:19;;;;;;;0.20;0.20;;;4.20;99.90;;;;;;5013000;28;20188;-80
2021/01/06 09:44:45;;;;;;;0.10;0.10;;;3.90;99.90;;;;;;5011707;28;20795;-80
2021/01/06 09:47:30;;;;;;;0.57;0.47;;;3.90;99.90;;;;;;5012361;28;20204;-80
2021/01/06 09:50:00;;;;;;;0.10;0.10;;;3.90;99.90;;;;;;5012506;28;20237;-79
2021/01/06 09:52:35;;;;;;;0.00;0.00;;;3.90;99.90;;;;;;5011565;28;20219;-78
2021/01/06 09:55:04;;;;;;;0.50;0.50;;;4.00;99.90;;;;;;5023825;28;20299;-79
2021/01/06 09:57:30;;;;;;;0.53;0.30;;;3.90;99.90;;;;;;5011816;28;20281;-79
2021/01/06 10:00:00;;;;;;;0.20;0.20;;;4.00;99.90;;;;;;5010631;28;20215;-79
2021/01/06 10:02:33;;;;;;;0.10;0.10;;;3.90;99.90;;;;;;5010100;28;20749;-78
2021/01/06 10:05:11;;;;;;;0.10;0.10;;;3.80;99.90;;;;;;4997736;28;20187;-80
2021/01/06 10:07:56;;;;;;;0.10;0.10;;;3.90;99.90;;;;;;5009442;28;20206;-80
2021/01/06 10:10:29;;;;;;;0.10;0.10;;;3.80;99.90;;;;;;5012529;28;20281;-79
2021/01/06 10:13:00;;;;;;;1.03;0.33;;;3.80;99.90;;;;;;5011992;28;20197;-80
2021/01/06 10:15:35;;;;;;;0.20;0.20;;;3.80;99.90;;;;;;5013344;28;20188;-80
2021/01/06 10:18:16;;;;;;;0.13;0.13;;;3.80;99.90;;;;;;5002486;28;20226;-79
2021/01/06 10:20:47;;;;;;;0.10;0.10;;;3.90;99.90;;;;;;5011215;28;20699;-78
2021/01/06 10:23:27;;;;;;;0.50;0.10;;;3.80;99.90;;;;;;5013097;28;20198;-80
2021/01/06 10:26:11;;;;;;;0.20;0.20;;;3.70;99.90;;;;;;5005163;28;20180;-79
2021/01/06 10:28:47;;;;;;;0.00;0.00;;;3.80;99.90;;;;;;5013591;28;20209;-80
2021/01/06 10:31:18;;;;;;;2.10;0.77;;;3.80;99.90;;;;;;5012189;28;20195;-80
2021/01/06 10:34:08;;;;;;;1.10;0.97;;;3.70;99.90;;;;;;5012871;28;20197;-79
2021/01/06 10:37:01;;;;;;;1.73;0.30;;;3.90;99.90;;;;;;5012183;28;20188;-79
2021/01/06 10:39:40;;;;;;;0.40;0.37;;;4.00;99.90;;;;;;5010629;28;20567;-82
2021/01/06 10:42:32;;;;;;;0.20;0.20;;;3.90;99.90;;;;;;5007166;28;20182;-79
2021/01/06 10:45:07;;;;;;;1.60;0.50;;;4.10;99.90;;;;;;5004193;28;21844;-80
2021/01/06 10:47:32;;;;;;;0.30;0.20;;;4.10;99.90;;;;;;5010870;28;20202;-78
2021/01/06 10:50:04;;;;;;;0.10;0.10;;;4.00;99.90;;;;;;5010248;28;20192;-81
2021/01/06 10:52:57;;;;;;;0.87;0.20;;;4.20;99.90;;;;;;5009076;28;20203;-81
2021/01/06 10:55:27;;;;;;;7.73;0.40;;;4.20;99.90;;;;;;5012742;28;20224;-81
2021/01/06 10:58:37;;;;;;;0.10;0.10;;;4.20;99.90;;;;;;5010519;28;20606;-81
2021/01/06 11:01:09;;;;;;;0.20;0.20;;;4.20;99.90;;;;;;4977127;28;20258;-80
2021/01/06 11:04:05;;;;;;;0.10;0.10;;;4.30;99.90;;;;;;5010321;28;20206;-80
2021/01/06 11:06:50;;;;;;;0.10;0.10;;;4.00;99.90;;;;;;5009719;28;20266;-81
2021/01/06 11:09:57;;;;;;;0.20;0.20;;;4.00;99.90;;;;;;5009927;28;20195;-80
2021/01/06 11:12:37;;;;;;;0.10;0.10;;;4.10;99.90;;;;;;5001352;28;20201;-80
2021/01/06 11:15:08;;;;;;;1.13;0.73;;;4.10;99.90;;;;;;5010115;28;20651;-80
2021/01/06 11:17:42;;;;;;;0.50;0.40;;;4.10;99.90;;;;;;5024667;28;20219;-80
2021/01/06 11:20:32;;;;;;;0.40;0.20;;;4.20;99.90;;;;;;5009721;28;20210;-80
2021/01/06 11:23:22;;;;;;;0.20;0.20;;;4.00;99.90;;;;;;5005275;28;20267;-81
2021/01/06 11:25:51;;;;;;;0.93;0.33;;;4.10;99.90;;;;;;5012893;28;20234;-80
2021/01/06 11:28:55;;;;;;;0.00;0.00;;;4.00;99.90;;;;;;5010851;28;21540;-80
2021/01/06 11:31:33;;;;;;;0.10;0.10;;;4.00;99.90;;;;;;5005242;28;20218;-80
2021/01/06 11:34:19;;;;;;;0.10;0.10;;;4.00;99.90;;;;;;5010318;28;20226;-79
2021/01/06 11:36:53;;;;;;;0.10;0.10;;;4.00;99.90;;;;;;5014114;28;20180;-79
2021/01/06 11:39:28;;;;;;;0.10;0.10;;;4.10;99.90;;;;;;5006528;28;20182;-80
2021/01/06 11:41:58;;;;;;;0.13;0.13;;;4.10;99.90;;;;;;5025428;28;20243;-80
2021/01/06 11:44:32;;;;;;;0.20;0.20;;;4.20;99.90;;;;;;5010506;28;20279;-80
2021/01/06 11:47:25;;;;;;;0.10;0.10;;;4.20;99.90;;;;;;5015314;28;20205;-81
2021/01/06 11:49:55;;;;;;;0.10;0.10;;;4.30;99.90;;;;;;5009096;28;20189;-81
2021/01/06 11:52:38;;;;;;;0.23;0.10;;;4.60;99.90;;;;;;5010282;28;20192;-78
2021/01/06 11:55:12;;;;;;;0.37;0.37;;;4.60;99.90;;;;;;5009448;28;20184;-80
2021/01/06 11:57:54;;;;;;;0.20;0.20;;;4.70;99.90;;;;;;5006685;28;20210;-79
2021/01/06 12:00:44;;;;;;;0.50;0.50;;;4.70;99.90;;;;;;5007898;28;20654;-81
2021/01/06 12:03:21;;;;;;;0.10;0.10;;;4.60;99.90;;;;;;5006478;28;20187;-80
2021/01/06 12:06:08;;;;;;;0.10;0.10;;;4.50;99.90;;;;;;5016270;28;20564;-80
2021/01/06 12:08:46;;;;;;;0.10;0.10;;;4.70;99.90;;;;;;5015788;28;20202;-81
2021/01/06 12:11:28;;;;;;;0.10;0.10;;;4.80;99.90;;;;;;5019416;28;20594;-81
2021/01/06 12:14:24;;;;;;;0.83;0.50;;;4.80;99.90;;;;;;5022468;28;20183;-81
2021/01/06 12:17:12;;;;;;;0.23;0.23;;;4.80;99.90;;;;;;5007427;28;20281;-80
2021/01/06 12:19:57;;;;;;;0.10;0.10;;;4.70;99.90;;;;;;5007355;28;20191;-80
2021/01/06 12:22:24;;;;;;;0.13;0.13;;;4.90;99.90;;;;;;5007479;28;20262;-81
2021/01/06 12:24:59;;;;;;;0.10;0.10;;;5.10;99.90;;;;;;5011327;28;20172;-79
2021/01/06 12:27:50;;;;;;;0.20;0.20;;;5.20;99.90;;;;;;5031018;28;20214;-80
2021/01/06 12:30:15;;;;;;;0.23;0.23;;;5.00;99.90;;;;;;5007690;28;20188;-79
2021/01/06 12:33:08;;;;;;;0.10;0.10;;;5.10;99.90;;;;;;5008327;28;20191;-81
2021/01/06 12:35:42;;;;;;;0.63;0.33;;;5.10;99.90;;;;;;5023418;28;20199;-80
2021/01/06 12:38:24;;;;;;;0.10;0.10;;;4.80;99.90;;;;;;5007416;28;20219;-80
2021/01/06 12:41:03;;;;;;;0.20;0.20;;;5.10;99.90;;;;;;5017228;28;20728;-81
2021/01/06 12:43:58;;;;;;;0.10;0.10;;;5.20;99.90;;;;;;5009027;28;20195;-81
2021/01/06 12:46:36;;;;;;;0.10;0.10;;;5.30;99.90;;;;;;4996361;28;20189;-81
2021/01/06 12:49:10;;;;;;;1.90;1.80;;;5.00;99.90;;;;;;5010412;28;20182;-81
2021/01/06 12:51:44;;;;;;;0.10;0.10;;;4.80;99.90;;;;;;5006725;28;20203;-81
2021/01/06 12:54:19;;;;;;;0.10;0.10;;;4.80;99.90;;;;;;5009613;28;20568;-80
2021/01/06 12:57:00;;;;;;;0.33;0.33;;;4.80;99.90;;;;;;5009914;28;20246;-81
2021/01/06 12:59:26;;;;;;;0.57;0.37;;;4.70;99.90;;;;;;5010407;28;20196;-81
2021/01/06 13:01:58;;;;;;;0.43;0.43;;;4.70;99.90;;;;;;5019598;28;20731;-80
2021/01/06 13:04:40;;;;;;;0.80;0.50;;;4.70;99.90;;;;;;5012104;28;20190;-81
2021/01/06 13:07:12;;;;;;;0.40;0.40;;;4.60;99.90;;;;;;5006830;28;20206;-81
2021/01/06 13:09:54;;;;;;;0.10;0.10;;;4.50;99.90;;;;;;5012991;28;20187;-80
2021/01/06 13:12:22;;;;;;;3.50;0.90;;;4.60;99.90;;;;;;5013287;28;20195;-81
2021/01/06 13:15:22;;;;;;;0.37;0.37;;;4.60;99.90;;;;;;5011922;28;20211;-81
2021/01/06 13:18:06;;;;;;;0.30;0.30;;;4.60;99.90;;;;;;4979701;28;20595;-81
2021/01/06 13:20:44;;;;;;;0.20;0.20;;;4.50;99.90;;;;;;5013160;28;20301;-79
2021/01/06 13:23:24;;;;;;;0.73;0.70;;;4.60;99.90;;;;;;5016426;28;20270;-81
2021/01/06 13:26:01;;;;;;;0.10;0.10;;;4.50;99.90;;;;;;5008537;28;20191;-81
2021/01/06 13:28:35;;;;;;;0.33;0.33;;;4.70;99.90;;;;;;5012834;28;20227;-80
2021/01/06 13:31:28;;;;;;;0.10;0.10;;;4.70;99.90;;;;;;5010222;28;20184;-80
2021/01/06 13:34:03;;;;;;;0.10;0.10;;;4.70;99.90;;;;;;5001591;28;20192;-81
2021/01/06 13:36:46;;;;;;;6.70;0.30;;;4.50;99.90;;;;;;5011777;28;20179;-80
2021/01/06 13:39:45;;;;;;;0.10;0.10;;;4.50;99.90;;;;;;5018062;28;20198;-79
2021/01/06 13:42:38;;;;;;;0.10;0.10;;;4.60;99.90;;;;;;5013379;28;20198;-80
2021/01/06 13:45:13;;;;;;;1.30;0.77;;;4.80;99.90;;;;;;5010917;28;20583;-79